Aérodrome :
LOGIN :

S'inscrire | Disclaimer

   EN    FR    IT 

 










Légende :    VFR   VFR Marginal   IFR   IFR Intensif   IFR Très Intensif
Visi : 
Plafond : 
>= 8 km
>= 3000ft
5 à 8 km
1000 à 3000 ft
1500m à 5 km
500 à 1000 ft
800 à 1500m
200 à 500 ft
< 800m
< 200 ft
Symboles :   Orages  Brouillard  Fortes neiges  Fortes précipitations  Vent > 20 kt
SIGMETs :   Divers  Orages  Givrage  Turbulence  Onde Orograph.  Cendres Volcan.







- Altitude de l'aérodrome : 526 ft
- Code IATA : LTN
- Voir les cartes d'approche


EGGW - London Luton

DERNIER METAR :
  • 150220Z AUTO 13010KT 9999 OVC034 00/M04 Q1020

METARs EXPIRÉS :
  • 150150Z AUTO 14009KT 9999 OVC034 01/M04 Q1020
  • 150120Z AUTO 14008KT 9999 OVC034 01/M04 Q1021
  • 150050Z AUTO 14010KT 9999 OVC036 01/M03 Q1021
  • 150020Z AUTO 14007KT 9999 OVC037 01/M03 Q1021
  • 142350Z AUTO 13007KT 9999 OVC035 01/M03 Q1021

TAF TAF EGGW
Valide du 15 à 00h jusqu'au 16 à 00h UTC


142254Z 1500/1524 15005KT 9999 SCT040
PROB40 1500/1506 8000
BECMG 1506/1509 16015G25KT
BECMG 1511/1514 7000 -RA BKN012
PROB30
TEMPO 1513/1516 4000 FZRA BKN006
TEMPO 1516/1520 4000 RADZ BKN006
PROB30
TEMPO 1516/1520 1200 +RA BKN003
BECMG 1520/1523 23012KT 9999 NSW SCT020
ATIS : +44 1582 395 204
Pas de NOTAMs connus pour ce terrain.



MET'MAP, la Météo Aéronautique d'un coup d'oeil ! - Copyright ORBIFLY Décembre 2007 - Disclaimer

ORBIFLY MET'MAP TEAM :

Programmation & Développement : Alexandra Zaïnal
Conception & Développement : Baudouin d'Aumeries
Co-Programmation & Développement : Marc-Olivier Méhu
Soutien technique & logistique : Manuel Goepfert

Contact : metmap@orbifly.com




SOURCES & CREDITS :

   NOAA